createdAt,value
2018-10-18T00:00:06.103Z,19.62
2018-10-18T00:02:35.286Z,17.27
2018-10-18T00:05:05.203Z,19.20
2018-10-18T00:07:34.561Z,19.32
2018-10-18T00:10:03.894Z,18.60
2018-10-18T00:12:33.206Z,17.30
2018-10-18T00:15:02.441Z,19.35
2018-10-18T00:17:39.067Z,18.70
2018-10-18T00:20:08.349Z,20.10
2018-10-18T00:22:37.572Z,18.73
2018-10-18T00:25:07.138Z,23.52
2018-10-18T00:27:48.829Z,18.82
2018-10-18T00:30:24.884Z,19.23
2018-10-18T00:32:54.072Z,15.60
2018-10-18T00:35:31.705Z,18.32
2018-10-18T00:38:01.164Z,21.35
2018-10-18T00:40:30.266Z,21.10
2018-10-18T00:42:59.479Z,19.40
2018-10-18T00:45:28.706Z,16.23
2018-10-18T00:47:58.194Z,18.15
2018-10-18T00:50:27.632Z,22.20
2018-10-18T00:52:56.898Z,21.15
2018-10-18T00:55:26.502Z,21.02
2018-10-18T00:57:55.716Z,19.92
2018-10-18T01:00:25.476Z,19.25
2018-10-18T01:02:54.680Z,17.62
2018-10-18T01:05:23.922Z,19.73
2018-10-18T01:07:53.401Z,19.02
2018-10-18T01:10:22.766Z,17.85
2018-10-18T01:12:52.184Z,18.27
2018-10-18T01:15:21.401Z,17.80
2018-10-18T01:17:51.767Z,24.12
2018-10-18T01:20:20.925Z,21.35
2018-10-18T01:22:50.131Z,21.15
2018-10-18T01:25:19.347Z,19.62
2018-10-18T01:27:48.867Z,20.85
2018-10-18T01:30:18.237Z,19.90
2018-10-18T01:32:47.530Z,21.85
2018-10-18T01:35:16.711Z,21.30
2018-10-18T01:37:45.960Z,18.37
2018-10-18T01:40:15.211Z,17.92
2018-10-18T01:42:44.385Z,18.98
2018-10-18T01:45:13.584Z,19.55
2018-10-18T01:47:42.951Z,19.37
2018-10-18T01:50:12.293Z,18.50
2018-10-18T01:52:41.453Z,19.35
2018-10-18T01:55:10.693Z,20.30
2018-10-18T01:57:39.927Z,18.27
2018-10-18T02:00:09.580Z,20.12
2018-10-18T02:02:38.922Z,21.25
2018-10-18T02:05:08.177Z,21.48
2018-10-18T02:07:38.600Z,19.77
2018-10-18T02:10:07.953Z,20.30
2018-10-18T02:12:37.147Z,21.85
2018-10-18T02:15:08.698Z,19.62
2018-10-18T02:17:38.089Z,21.95
2018-10-18T02:20:08.194Z,17.85
2018-10-18T02:22:37.363Z,17.00
2018-10-18T02:25:06.832Z,19.75
2018-10-18T02:27:37.151Z,17.55
2018-10-18T02:30:06.666Z,17.50
2018-10-18T02:32:35.838Z,17.37
2018-10-18T02:35:05.636Z,20.50
2018-10-18T02:37:34.923Z,21.33
2018-10-18T02:40:04.216Z,15.95
2018-10-18T02:42:33.449Z,18.07
2018-10-18T02:45:03.240Z,19.32
2018-10-18T02:47:32.505Z,17.12
2018-10-18T02:50:02.249Z,16.75
2018-10-18T02:52:31.697Z,21.57
2018-10-18T02:55:00.873Z,18.37
2018-10-18T02:57:30.803Z,21.30
2018-10-18T02:59:59.968Z,18.82
2018-10-18T03:02:29.400Z,19.85
2018-10-18T03:04:58.629Z,22.30
2018-10-18T03:07:27.925Z,23.02
2018-10-18T03:09:57.097Z,24.52
2018-10-18T03:12:26.271Z,19.40
2018-10-18T03:14:55.453Z,22.55
2018-10-18T03:17:24.876Z,19.20
2018-10-18T03:19:54.270Z,21.77
2018-10-18T03:22:23.471Z,22.62
2018-10-18T03:24:52.663Z,20.52
2018-10-18T03:27:21.924Z,18.55
2018-10-18T03:29:51.144Z,21.25
2018-10-18T03:32:20.364Z,21.62
2018-10-18T03:34:49.537Z,21.37
2018-10-18T03:37:18.982Z,22.98
2018-10-18T03:39:48.174Z,22.62
2018-10-18T03:42:17.563Z,18.30
2018-10-18T03:44:46.651Z,19.77
2018-10-18T03:47:17.855Z,19.17
2018-10-18T03:49:47.061Z,21.93
2018-10-18T03:52:16.277Z,20.48
2018-10-18T03:54:45.465Z,20.08
2018-10-18T03:57:14.743Z,19.05
2018-10-18T03:59:44.049Z,19.30
2018-10-18T04:02:14.617Z,20.35
2018-10-18T04:04:43.794Z,19.05
2018-10-18T04:07:13.187Z,19.90
2018-10-18T04:09:42.360Z,20.00
2018-10-18T04:12:11.718Z,25.77
2018-10-18T04:14:40.864Z,21.12
2018-10-18T04:17:10.976Z,24.45
2018-10-18T04:19:40.154Z,26.97
2018-10-18T04:22:09.354Z,22.17
2018-10-18T04:24:38.649Z,20.15
2018-10-18T04:27:08.024Z,23.25
2018-10-18T04:29:37.307Z,24.77
2018-10-18T04:32:06.706Z,19.77
2018-10-18T04:34:36.336Z,21.80
2018-10-18T04:37:05.998Z,21.50
2018-10-18T04:39:36.057Z,19.95
2018-10-18T04:42:05.512Z,18.70
2018-10-18T04:44:35.735Z,22.65
2018-10-18T04:47:06.012Z,20.30
2018-10-18T04:49:36.163Z,19.82
2018-10-18T04:52:05.605Z,25.17
2018-10-18T04:54:35.244Z,22.93
2018-10-18T04:57:04.539Z,23.30
2018-10-18T04:59:33.778Z,19.12
2018-10-18T05:02:03.038Z,21.40
2018-10-18T05:04:32.252Z,18.50
2018-10-18T05:07:01.587Z,22.05
2018-10-18T05:09:30.715Z,20.30
2018-10-18T05:11:59.910Z,23.87
2018-10-18T05:14:29.167Z,21.27
2018-10-18T05:16:58.530Z,21.45
2018-10-18T05:19:29.329Z,23.38
2018-10-18T05:22:00.507Z,20.20
2018-10-18T05:24:31.222Z,21.45
2018-10-18T05:27:01.572Z,20.65
2018-10-18T05:29:31.532Z,23.05
2018-10-18T05:32:02.120Z,23.27
2018-10-18T05:34:31.318Z,29.42
2018-10-18T05:37:00.887Z,23.25
2018-10-18T05:39:30.020Z,23.07
2018-10-18T05:41:59.254Z,22.90
2018-10-18T05:44:28.480Z,26.37
2018-10-18T05:46:57.774Z,22.65
2018-10-18T05:49:26.955Z,22.50
2018-10-18T05:51:56.146Z,22.37
2018-10-18T05:54:25.313Z,25.45
2018-10-18T05:56:54.706Z,22.07
2018-10-18T05:59:23.893Z,25.62
2018-10-18T06:01:53.058Z,20.35
2018-10-18T06:04:22.236Z,22.17
2018-10-18T06:06:51.513Z,19.75
2018-10-18T06:09:27.823Z,21.73
2018-10-18T06:11:57.013Z,22.55
2018-10-18T06:14:26.288Z,22.65
2018-10-18T06:16:55.954Z,24.55
2018-10-18T06:19:25.203Z,23.70
2018-10-18T06:21:54.461Z,21.05
2018-10-18T06:24:23.649Z,22.10
2018-10-18T06:26:53.916Z,40.75
2018-10-18T06:29:23.156Z,24.10
2018-10-18T06:31:52.338Z,29.67
2018-10-18T06:34:21.782Z,23.25
2018-10-18T06:36:51.114Z,22.93
2018-10-18T06:39:20.405Z,23.77
2018-10-18T06:41:49.804Z,26.00
2018-10-18T06:44:18.999Z,30.85
2018-10-18T06:46:48.383Z,25.80
2018-10-18T06:49:17.705Z,24.55
2018-10-18T06:51:46.788Z,29.50
2018-10-18T06:54:15.997Z,21.82
2018-10-18T06:56:45.173Z,25.88
2018-10-18T06:59:14.361Z,20.52
2018-10-18T07:01:43.555Z,20.60
2018-10-18T07:04:12.770Z,21.85
2018-10-18T07:06:42.258Z,22.22
2018-10-18T07:09:11.871Z,20.85
2018-10-18T07:11:41.779Z,23.83
2018-10-18T07:14:10.975Z,23.95
2018-10-18T07:16:40.177Z,26.73
2018-10-18T07:19:09.523Z,24.45
2018-10-18T07:21:38.755Z,27.95
2018-10-18T07:24:07.987Z,25.30
2018-10-18T07:26:37.152Z,23.40
2018-10-18T07:29:06.360Z,26.02
2018-10-18T07:31:35.565Z,23.75
2018-10-18T07:34:05.913Z,34.30
2018-10-18T07:36:35.141Z,33.67
2018-10-18T07:39:06.700Z,36.45
2018-10-18T07:41:35.898Z,34.45
2018-10-18T07:44:05.268Z,35.73
2018-10-18T07:46:34.504Z,33.88
2018-10-18T07:49:03.755Z,35.00
2018-10-18T07:51:32.910Z,34.38
2018-10-18T07:54:02.201Z,26.35
2018-10-18T07:56:31.967Z,25.35
2018-10-18T07:59:01.431Z,28.75
2018-10-18T08:01:30.674Z,30.32
2018-10-18T08:03:59.882Z,27.50
2018-10-18T08:06:29.110Z,28.73
2018-10-18T08:08:58.345Z,27.98
2018-10-18T08:11:27.536Z,31.40
2018-10-18T08:13:56.776Z,30.85
2018-10-18T08:16:26.420Z,31.05
2018-10-18T08:18:55.674Z,29.52
2018-10-18T08:21:24.847Z,35.20
2018-10-18T08:23:54.062Z,30.08
2018-10-18T08:26:23.555Z,29.02
2018-10-18T08:28:52.765Z,29.00
2018-10-18T08:31:22.158Z,33.53
2018-10-18T08:33:51.161Z,34.45
2018-10-18T08:36:21.744Z,34.73
2018-10-18T08:38:51.611Z,37.80
2018-10-18T08:41:20.997Z,38.90
2018-10-18T08:43:50.237Z,30.55
2018-10-18T08:46:19.410Z,32.73
2018-10-18T08:48:48.608Z,36.00
2018-10-18T08:51:17.802Z,34.00
2018-10-18T08:53:47.717Z,35.92
2018-10-18T08:56:17.663Z,37.85
2018-10-18T08:58:47.901Z,38.17
2018-10-18T09:01:17.220Z,34.00
2018-10-18T09:03:46.617Z,38.08
2018-10-18T09:06:15.832Z,38.28
2018-10-18T09:08:45.579Z,33.73
2018-10-18T09:11:14.786Z,38.23
2018-10-18T09:13:44.153Z,36.65
2018-10-18T09:16:13.455Z,37.00
2018-10-18T09:18:42.693Z,35.28
2018-10-18T09:21:11.867Z,38.42
2018-10-18T09:23:41.086Z,38.13
2018-10-18T09:26:10.339Z,36.40
2018-10-18T09:28:39.717Z,35.48
2018-10-18T09:31:08.980Z,39.30
2018-10-18T09:33:38.101Z,45.95
2018-10-18T09:36:07.273Z,38.45
2018-10-18T09:38:37.435Z,42.83
2018-10-18T09:41:06.732Z,40.55
2018-10-18T09:43:35.958Z,40.10
2018-10-18T09:46:05.612Z,49.00
2018-10-18T09:48:35.076Z,43.60
2018-10-18T09:52:01.533Z,41.65
2018-10-18T09:54:30.743Z,44.30
2018-10-18T09:57:00.155Z,39.95
2018-10-18T09:59:29.423Z,41.90
2018-10-18T10:02:03.823Z,39.18
2018-10-18T10:04:33.135Z,35.83
2018-10-18T10:07:02.501Z,42.60
2018-10-18T10:09:31.640Z,35.60
2018-10-18T10:12:00.835Z,40.45
2018-10-18T10:14:30.036Z,39.67
2018-10-18T10:17:00.280Z,42.05
2018-10-18T10:19:29.474Z,35.13
2018-10-18T10:21:58.646Z,31.75
2018-10-18T10:24:27.863Z,35.58
2018-10-18T10:26:57.103Z,35.63
2018-10-18T10:29:26.408Z,41.08
2018-10-18T10:31:56.002Z,33.65
2018-10-18T10:34:25.246Z,38.55
2018-10-18T10:36:54.557Z,39.98
2018-10-18T10:39:23.818Z,36.13
2018-10-18T10:41:53.488Z,31.45
2018-10-18T10:44:22.712Z,31.27
2018-10-18T10:46:52.230Z,30.15
2018-10-18T10:49:21.579Z,33.70
2018-10-18T10:51:51.501Z,29.18
2018-10-18T10:54:20.766Z,31.68
2018-10-18T10:56:53.181Z,37.42
2018-10-18T10:59:22.493Z,26.65
2018-10-18T11:01:52.549Z,25.37
2018-10-18T11:04:22.067Z,31.23
2018-10-18T11:06:51.482Z,30.00
2018-10-18T11:09:21.323Z,28.42
2018-10-18T11:11:50.818Z,25.52
2018-10-18T11:14:20.431Z,25.85
2018-10-18T11:16:50.856Z,27.62
2018-10-18T11:19:20.199Z,28.70
2018-10-18T11:21:49.864Z,31.35
2018-10-18T11:24:19.219Z,28.57
2018-10-18T11:26:49.298Z,27.87
2018-10-18T11:29:18.630Z,25.12
2018-10-18T11:31:48.190Z,23.92
2018-10-18T11:34:17.551Z,36.70
2018-10-18T11:36:47.011Z,24.25
2018-10-18T11:39:17.108Z,27.80
2018-10-18T11:41:46.435Z,30.60
2018-10-18T11:44:15.814Z,23.55
2018-10-18T11:46:46.717Z,20.02
2018-10-18T11:49:15.980Z,22.82
2018-10-18T11:51:46.496Z,24.30
2018-10-18T11:54:15.844Z,27.55
2018-10-18T11:56:46.298Z,20.27
2018-10-18T11:59:15.843Z,20.95
2018-10-18T12:01:45.111Z,22.57
2018-10-18T12:04:14.488Z,20.32
2018-10-18T12:06:44.895Z,21.27
2018-10-18T12:09:15.432Z,20.02
2018-10-18T12:11:44.868Z,20.55
2018-10-18T12:14:15.003Z,21.00
2018-10-18T12:16:53.213Z,22.52
2018-10-18T12:19:33.310Z,25.52
2018-10-18T12:24:47.207Z,17.80
2018-10-18T12:27:16.578Z,18.73
2018-10-18T12:29:45.786Z,19.80
2018-10-18T12:32:16.882Z,16.27
2018-10-18T12:34:46.046Z,17.93
2018-10-18T12:37:15.691Z,19.75
2018-10-18T12:39:45.092Z,19.33
2018-10-18T12:42:14.254Z,16.70
2018-10-18T12:44:43.457Z,15.78
2018-10-18T12:47:19.085Z,18.23
2018-10-18T12:49:48.314Z,15.28
2018-10-18T12:52:17.536Z,18.00
2018-10-18T12:54:46.800Z,17.03
2018-10-18T12:57:16.149Z,15.90
2018-10-18T12:59:45.375Z,17.67
2018-10-18T13:02:17.346Z,16.03
2018-10-18T13:04:49.404Z,15.60
2018-10-18T13:07:19.517Z,14.33
2018-10-18T13:09:48.742Z,19.80
2018-10-18T13:12:21.367Z,15.40
2018-10-18T13:14:50.503Z,16.30
2018-10-18T13:17:21.601Z,20.20
2018-10-18T13:19:51.203Z,20.53
2018-10-18T13:22:20.416Z,16.27
2018-10-18T13:24:50.101Z,16.87
2018-10-18T13:27:24.245Z,17.20
2018-10-18T13:29:53.502Z,18.20
2018-10-18T13:32:26.787Z,14.80
2018-10-18T13:34:56.071Z,15.77
2018-10-18T13:40:23.757Z,15.80
2018-10-18T13:42:52.991Z,17.33
2018-10-18T13:45:25.993Z,15.80
2018-10-18T13:47:55.452Z,22.63
2018-10-18T13:50:26.521Z,17.50
2018-10-18T13:52:56.203Z,16.57
2018-10-18T13:55:27.423Z,17.90
2018-10-18T13:57:57.428Z,16.60
2018-10-18T14:00:30.640Z,16.10
2018-10-18T14:02:59.912Z,26.13
2018-10-18T14:05:30.600Z,18.00
2018-10-18T14:08:01.513Z,15.97
2018-10-18T14:10:34.292Z,16.30
2018-10-18T14:13:03.527Z,15.87
2018-10-18T14:15:35.249Z,18.97
2018-10-18T14:18:04.878Z,17.27
2018-10-18T14:20:36.383Z,15.97
2018-10-18T14:23:06.525Z,17.40
2018-10-18T14:25:38.169Z,20.13
2018-10-18T14:28:07.550Z,16.50
2018-10-18T14:30:39.488Z,18.03
2018-10-18T14:33:08.907Z,16.03
2018-10-18T14:35:40.500Z,15.03
2018-10-18T14:38:13.003Z,17.37
2018-10-18T14:40:44.094Z,17.27
2018-10-18T14:43:14.102Z,18.93
2018-10-18T14:45:44.480Z,20.27
2018-10-18T14:48:14.261Z,17.40
2018-10-18T14:50:45.797Z,17.97
2018-10-18T14:53:15.983Z,19.60
2018-10-18T14:55:45.922Z,18.43
2018-10-18T14:58:16.490Z,19.80
2018-10-18T15:00:48.254Z,21.60
2018-10-18T15:03:17.758Z,18.10
2018-10-18T15:05:47.489Z,19.97
2018-10-18T15:08:17.195Z,20.00
2018-10-18T15:10:48.527Z,20.17
2018-10-18T15:13:19.292Z,24.93
2018-10-18T15:15:51.965Z,19.30
2018-10-18T15:18:23.880Z,18.73
2018-10-18T15:20:53.441Z,18.20
2018-10-18T15:23:25.679Z,18.70
2018-10-18T15:25:56.149Z,19.07
2018-10-18T15:28:29.039Z,21.43
2018-10-18T15:30:58.842Z,22.47
2018-10-18T15:33:29.383Z,17.57
2018-10-18T15:35:59.006Z,20.80
2018-10-18T15:38:29.181Z,18.33
2018-10-18T15:40:58.331Z,20.43
2018-10-18T15:43:28.451Z,19.20
2018-10-18T15:45:58.501Z,20.30
2018-10-18T15:48:27.822Z,19.93
2018-10-18T15:50:58.139Z,20.37
2018-10-18T15:53:27.426Z,20.20
2018-10-18T15:55:57.035Z,19.70
2018-10-18T15:58:27.252Z,17.43
2018-10-18T16:00:56.971Z,16.70
2018-10-18T16:03:27.667Z,17.80
2018-10-18T16:05:57.184Z,16.07
2018-10-18T16:08:28.072Z,18.85
2018-10-18T16:10:57.442Z,18.52
2018-10-18T16:13:27.124Z,18.75
2018-10-18T16:16:00.018Z,18.40
2018-10-18T16:18:31.503Z,18.10
2018-10-18T16:21:00.906Z,18.87
2018-10-18T16:23:31.167Z,16.90
2018-10-18T16:26:02.391Z,17.50
2018-10-18T16:28:33.070Z,16.85
2018-10-18T16:31:02.526Z,16.32
2018-10-18T16:33:32.153Z,16.52
2018-10-18T16:36:05.649Z,18.15
2018-10-18T16:38:35.318Z,16.82
2018-10-18T16:41:06.313Z,17.92
2018-10-18T16:43:36.101Z,16.80
2018-10-18T16:46:07.648Z,15.72
2018-10-18T16:48:39.987Z,18.65
2018-10-18T16:51:09.370Z,21.33
2018-10-18T16:53:38.591Z,16.32
2018-10-18T16:56:08.912Z,16.35
2018-10-18T16:58:38.383Z,20.70
2018-10-18T17:01:08.679Z,17.23
2018-10-18T17:03:38.491Z,15.98
2018-10-18T17:06:10.382Z,18.15
2018-10-18T17:08:39.657Z,17.52
2018-10-18T17:11:09.077Z,15.55
2018-10-18T17:13:39.438Z,19.10
2018-10-18T17:16:10.723Z,19.37
2018-10-18T17:18:40.116Z,23.60
2018-10-18T17:21:09.358Z,24.50
2018-10-18T17:23:38.631Z,76.57
2018-10-18T17:26:12.363Z,89.50
2018-10-18T17:28:42.715Z,24.98
2018-10-18T17:31:12.229Z,20.35
2018-10-18T17:33:41.761Z,17.55
2018-10-18T17:36:12.243Z,17.48
2018-10-18T17:40:11.714Z,17.17
2018-10-18T17:42:41.528Z,23.15
2018-10-18T17:45:15.727Z,16.52
2018-10-18T17:47:47.840Z,19.62
2018-10-18T17:50:20.284Z,22.13
2018-10-18T17:52:50.054Z,22.55
2018-10-18T17:55:19.340Z,19.77
2018-10-18T17:57:50.601Z,19.17
2018-10-18T18:00:23.558Z,21.50
2018-10-18T18:02:53.245Z,21.27
2018-10-18T18:05:22.784Z,21.30
2018-10-18T18:07:52.495Z,22.45
2018-10-18T18:10:27.310Z,19.35
2018-10-18T18:12:58.022Z,19.95
2018-10-18T18:15:29.004Z,21.52
2018-10-18T18:18:01.020Z,24.87
2018-10-18T18:20:31.571Z,23.00
2018-10-18T18:23:01.607Z,22.85
2018-10-18T18:25:31.713Z,25.72
2018-10-18T18:28:02.189Z,23.38
2018-10-18T18:30:33.145Z,23.05
2018-10-18T18:33:02.449Z,27.58
2018-10-18T18:35:32.423Z,22.25
2018-10-18T18:38:02.915Z,23.87
2018-10-18T18:40:33.074Z,22.52
2018-10-18T18:43:02.878Z,21.82
2018-10-18T18:45:37.391Z,21.68
2018-10-18T18:48:06.913Z,20.80
2018-10-18T18:50:36.183Z,22.32
2018-10-18T18:53:06.773Z,20.15
2018-10-18T18:55:36.329Z,22.35
2018-10-18T18:58:05.878Z,25.10
2018-10-18T19:00:35.713Z,23.52
2018-10-18T19:03:05.796Z,23.92
2018-10-18T19:05:35.160Z,20.77
2018-10-18T19:08:04.484Z,20.55
2018-10-18T19:10:33.812Z,17.82
2018-10-18T19:13:35.249Z,16.32
2018-10-18T19:16:04.522Z,18.60
2018-10-18T19:18:35.636Z,18.60
2018-10-18T19:21:05.160Z,17.27
2018-10-18T19:23:34.450Z,22.90
2018-10-18T19:26:05.077Z,18.20
2018-10-18T19:28:34.720Z,19.42
2018-10-18T19:31:07.039Z,17.52
2018-10-18T19:33:36.397Z,20.20
2018-10-18T19:36:06.866Z,19.05
2018-10-18T19:38:36.467Z,19.42
2018-10-18T19:41:05.745Z,18.82
2018-10-18T19:43:35.203Z,22.17
2018-10-18T19:46:05.903Z,21.97
2018-10-18T19:48:39.354Z,17.67
2018-10-18T19:51:08.857Z,18.57
2018-10-18T19:53:38.379Z,17.52
2018-10-18T19:56:07.967Z,18.05
2018-10-18T19:58:37.451Z,17.80
2018-10-18T20:01:07.050Z,23.70
2018-10-18T20:03:36.403Z,20.45
2018-10-18T20:06:06.458Z,21.25
2018-10-18T20:08:37.842Z,24.18
2018-10-18T20:11:08.262Z,18.98
2018-10-18T20:13:39.760Z,20.80
2018-10-18T20:16:10.157Z,27.80
2018-10-18T20:18:41.215Z,20.75
2018-10-18T20:21:12.177Z,21.40
2018-10-18T20:23:42.219Z,25.02
2018-10-18T20:26:14.008Z,20.17
2018-10-18T20:28:43.019Z,22.48
2018-10-18T20:31:13.011Z,22.15
2018-10-18T20:33:42.274Z,19.35
2018-10-18T20:36:12.494Z,22.73
2018-10-18T20:38:43.944Z,21.07
2018-10-18T20:41:15.488Z,19.20
2018-10-18T20:43:45.007Z,20.60
2018-10-18T20:46:15.302Z,21.75
2018-10-18T20:48:44.813Z,24.02
2018-10-18T20:51:15.285Z,20.48
2018-10-18T20:53:45.048Z,25.17
2018-10-18T20:56:15.611Z,23.55
2018-10-18T20:58:44.975Z,23.12
2018-10-18T21:01:14.984Z,22.90
2018-10-18T21:03:44.704Z,22.22
2018-10-18T21:06:15.171Z,24.35
2018-10-18T21:08:46.342Z,26.57
2018-10-18T21:11:16.463Z,21.70
2018-10-18T21:13:46.592Z,24.30
2018-10-18T21:16:20.162Z,21.80
2018-10-18T21:18:50.442Z,22.95
2018-10-18T21:21:19.670Z,25.75
2018-10-18T21:23:48.908Z,22.07
2018-10-18T21:26:18.154Z,23.90
2018-10-18T21:28:47.406Z,22.02
2018-10-18T21:31:18.082Z,24.63
2018-10-18T21:33:49.014Z,18.82
2018-10-18T21:36:19.225Z,23.55
2018-10-18T21:38:48.869Z,25.25
2018-10-18T21:41:18.679Z,25.12
2018-10-18T21:43:47.940Z,30.52
2018-10-18T21:46:17.391Z,25.90
2018-10-18T21:48:46.999Z,26.15
2018-10-18T21:51:17.602Z,24.98
2018-10-18T21:53:46.748Z,25.12
2018-10-18T21:56:16.595Z,23.60
2018-10-18T21:58:46.754Z,24.07
2018-10-18T22:01:16.771Z,26.00
2018-10-18T22:03:50.279Z,24.15
2018-10-18T22:06:20.140Z,29.23
2018-10-18T22:08:49.383Z,26.65
2018-10-18T22:11:18.604Z,27.82
2018-10-18T22:13:48.133Z,25.35
2018-10-18T22:16:18.090Z,29.87
2018-10-18T22:18:48.693Z,28.23
2018-10-18T22:21:19.565Z,26.00
2018-10-18T22:23:49.861Z,30.82
2018-10-18T22:26:19.309Z,28.52
2018-10-18T22:28:48.703Z,30.68
2018-10-18T22:31:20.009Z,26.48
2018-10-18T22:33:49.256Z,26.35
2018-10-18T22:36:21.837Z,30.45
2018-10-18T22:38:51.517Z,30.48
2018-10-18T22:41:21.320Z,32.60
2018-10-18T22:43:51.646Z,30.60
2018-10-18T22:46:21.862Z,27.90
2018-10-18T22:48:51.806Z,31.95
2018-10-18T22:51:21.026Z,30.23
2018-10-18T22:53:50.283Z,25.30
2018-10-18T22:56:20.032Z,31.73
2018-10-18T22:58:49.693Z,30.15
2018-10-18T23:01:19.835Z,35.52
2018-10-18T23:03:49.588Z,30.40
2018-10-18T23:06:19.561Z,35.95
2018-10-18T23:08:49.070Z,34.38
2018-10-18T23:11:18.958Z,34.48
2018-10-18T23:13:49.546Z,33.78
2018-10-18T23:16:21.651Z,36.65
2018-10-18T23:18:51.857Z,28.45
2018-10-18T23:21:21.093Z,33.08
2018-10-18T23:23:52.283Z,31.20
2018-10-18T23:26:22.476Z,29.10
2018-10-18T23:28:51.956Z,30.85
2018-10-18T23:31:21.214Z,29.75
2018-10-18T23:33:52.170Z,31.75
2018-10-18T23:36:24.838Z,29.80
2018-10-18T23:38:54.069Z,32.17
2018-10-18T23:41:24.214Z,30.62
2018-10-18T23:43:53.988Z,28.07
2018-10-18T23:46:23.442Z,32.17
2018-10-18T23:48:52.659Z,27.70
2018-10-18T23:51:22.198Z,29.02
2018-10-18T23:53:51.548Z,27.30
2018-10-18T23:56:23.675Z,29.60
2018-10-18T23:58:52.936Z,29.57
